Time;durP1;ratioP1;P1;durP2;ratioP2;P2;SDS_P1;SDS_P2;PMS_P1;PMS_P2;Temp;Humidity;BMP_temperature;BMP_pressure;BME280_temperature;BME280_humidity;BME280_pressure;Samples;Min_cycle;Max_cycle;Signal;HPM_P1;HPM_P2
2023/10/01 00:00:34;;;;;;;10.23;7.40;;;;;;;;;;6159726;23;20587;-66
2023/10/01 00:03:04;;;;;;;9.30;6.60;;;;;;;;;;6159919;23;20614;-66
2023/10/01 00:05:32;;;;;;;11.10;6.87;;;;;;;;;;6157763;23;20660;-66
2023/10/01 00:08:01;;;;;;;7.33;6.07;;;;;;;;;;6160642;23;20583;-66
2023/10/01 00:10:30;;;;;;;7.03;6.30;;;;;;;;;;6159541;23;20653;-66
2023/10/01 00:12:59;;;;;;;6.00;5.40;;;;;;;;;;6192372;23;20667;-66
2023/10/01 00:15:29;;;;;;;9.50;7.27;;;;;;;;;;6218771;23;20577;-66
2023/10/01 00:17:57;;;;;;;9.33;6.40;;;;;;;;;;6193177;23;20684;-66
2023/10/01 00:20:26;;;;;;;13.33;6.80;;;;;;;;;;6218009;23;20651;-66
2023/10/01 00:22:56;;;;;;;7.97;6.50;;;;;;;;;;6219955;23;20652;-66
2023/10/01 00:25:27;;;;;;;7.70;6.00;;;;;;;;;;6192242;23;20642;-66
2023/10/01 00:27:58;;;;;;;12.77;6.03;;;;;;;;;;6218749;23;20627;-66
2023/10/01 00:30:31;;;;;;;9.27;6.77;;;;;;;;;;6218207;23;20594;-66
2023/10/01 00:32:59;;;;;;;7.10;6.17;;;;;;;;;;6192301;23;20667;-66
2023/10/01 00:35:27;;;;;;;8.10;7.10;;;;;;;;;;6218134;23;20633;-66
2023/10/01 00:37:55;;;;;;;8.13;6.87;;;;;;;;;;6219093;23;20574;-66
2023/10/01 00:40:24;;;;;;;8.27;6.20;;;;;;;;;;6191294;23;20703;-66
2023/10/01 00:42:52;;;;;;;9.23;6.17;;;;;;;;;;6219039;23;20954;-66
2023/10/01 00:45:21;;;;;;;7.10;6.37;;;;;;;;;;6218539;23;20617;-67
2023/10/01 00:47:51;;;;;;;7.00;5.50;;;;;;;;;;6193439;23;20606;-67
2023/10/01 00:50:21;;;;;;;9.63;6.33;;;;;;;;;;6217651;23;20611;-67
2023/10/01 00:52:51;;;;;;;8.77;6.60;;;;;;;;;;6219568;23;20671;-67
2023/10/01 00:55:20;;;;;;;10.65;7.55;;;;;;;;;;6217708;23;20658;-67
2023/10/01 00:57:49;;;;;;;14.90;7.63;;;;;;;;;;6192077;23;20246;-67
2023/10/01 01:00:19;;;;;;;7.68;6.50;;;;;;;;;;6217396;23;20251;-67
2023/10/01 01:02:57;;;;;;;10.52;7.55;;;;;;;;;;6216964;23;20244;-67
2023/10/01 01:05:28;;;;;;;8.18;6.90;;;;;;;;;;6217013;23;20291;-67
2023/10/01 01:08:00;;;;;;;11.13;7.53;;;;;;;;;;6218518;23;20195;-67
2023/10/01 01:10:31;;;;;;;9.83;6.27;;;;;;;;;;6218227;23;20199;-67
2023/10/01 01:13:03;;;;;;;10.90;6.80;;;;;;;;;;6216909;23;20727;-67
2023/10/01 01:15:34;;;;;;;7.85;6.88;;;;;;;;;;6191022;23;20245;-67
2023/10/01 01:18:06;;;;;;;7.93;7.13;;;;;;;;;;6192064;23;20185;-67
2023/10/01 01:20:37;;;;;;;9.57;6.03;;;;;;;;;;6217314;23;20675;-67
2023/10/01 01:23:09;;;;;;;9.18;7.18;;;;;;;;;;6191828;23;20548;-67
2023/10/01 01:25:38;;;;;;;7.53;6.63;;;;;;;;;;6218775;23;20188;-67
2023/10/01 01:28:12;;;;;;;9.10;5.97;;;;;;;;;;6217550;23;20607;-66
2023/10/01 01:30:42;;;;;;;8.60;6.20;;;;;;;;;;6217602;23;20690;-66
2023/10/01 01:33:12;;;;;;;9.37;6.17;;;;;;;;;;6217246;23;20658;-67
2023/10/01 01:35:43;;;;;;;12.60;6.53;;;;;;;;;;6217731;23;20610;-66
2023/10/01 01:38:12;;;;;;;10.60;7.00;;;;;;;;;;6216791;23;20260;-66
2023/10/01 01:40:42;;;;;;;8.93;6.90;;;;;;;;;;6218409;23;20220;-66
2023/10/01 01:43:16;;;;;;;7.82;6.93;;;;;;;;;;6217807;23;20654;-66
2023/10/01 01:45:46;;;;;;;7.07;6.37;;;;;;;;;;6217590;23;20263;-66
2023/10/01 01:48:30;;;;;;;7.80;6.18;;;;;;;;;;6217221;23;20876;-65
2023/10/01 01:51:00;;;;;;;8.15;7.32;;;;;;;;;;6191332;23;20303;-66
2023/10/01 01:53:34;;;;;;;7.82;6.28;;;;;;;;;;6216924;23;20263;-66
2023/10/01 01:56:08;;;;;;;9.45;7.15;;;;;;;;;;6217989;23;20228;-67
2023/10/01 01:58:36;;;;;;;10.52;6.90;;;;;;;;;;6191037;23;20221;-65
2023/10/01 02:01:23;;;;;;;7.67;6.87;;;;;;;;;;6217593;23;20288;-65
2023/10/01 02:03:52;;;;;;;6.68;5.75;;;;;;;;;;6215725;23;20618;-65
2023/10/01 02:06:27;;;;;;;7.60;6.47;;;;;;;;;;6217291;23;20681;-65
2023/10/01 02:08:58;;;;;;;7.03;6.33;;;;;;;;;;6191209;23;20615;-65
2023/10/01 02:11:26;;;;;;;7.47;6.10;;;;;;;;;;6218060;23;20653;-65
2023/10/01 02:13:57;;;;;;;7.35;6.55;;;;;;;;;;6189761;23;20678;-66
2023/10/01 02:16:35;;;;;;;7.17;6.33;;;;;;;;;;6218444;23;20581;-66
2023/10/01 02:19:18;;;;;;;7.13;5.80;;;;;;;;;;6216830;23;20939;-66
2023/10/01 02:21:49;;;;;;;8.17;6.53;;;;;;;;;;6190861;23;20887;-66
2023/10/01 02:24:22;;;;;;;7.55;6.47;;;;;;;;;;6217357;23;20595;-66
2023/10/01 02:26:59;;;;;;;10.32;6.80;;;;;;;;;;6217707;23;20299;-66
2023/10/01 02:29:31;;;;;;;9.27;7.43;;;;;;;;;;6217170;23;20236;-66
2023/10/01 02:32:04;;;;;;;7.25;5.82;;;;;;;;;;6217754;23;20557;-66
2023/10/01 02:34:32;;;;;;;8.30;6.07;;;;;;;;;;6217411;23;20256;-66
2023/10/01 02:37:04;;;;;;;8.75;6.22;;;;;;;;;;6217105;23;20714;-66
2023/10/01 02:39:37;;;;;;;9.65;7.20;;;;;;;;;;6217476;23;20208;-66
2023/10/01 02:42:21;;;;;;;8.93;6.07;;;;;;;;;;6216928;23;20539;-66
2023/10/01 02:44:53;;;;;;;8.10;6.13;;;;;;;;;;6217043;23;20232;-66
2023/10/01 02:47:23;;;;;;;8.73;6.10;;;;;;;;;;6219059;23;20188;-66
2023/10/01 02:49:52;;;;;;;8.35;6.10;;;;;;;;;;6219299;23;20260;-66
2023/10/01 02:52:22;;;;;;;7.10;5.57;;;;;;;;;;6217966;23;20247;-66
2023/10/01 02:54:54;;;;;;;7.13;5.97;;;;;;;;;;6219326;23;20679;-66
2023/10/01 02:57:26;;;;;;;9.32;5.88;;;;;;;;;;6218719;23;20300;-66
2023/10/01 03:02:53;;;;;;;7.53;6.35;;;;;;;;;;6095448;23;20231;-66
2023/10/01 03:05:28;;;;;;;10.40;6.15;;;;;;;;;;6190844;23;20614;-66
2023/10/01 03:07:57;;;;;;;6.47;5.70;;;;;;;;;;6191724;23;20239;-66
2023/10/01 03:10:29;;;;;;;8.20;7.30;;;;;;;;;;6192416;23;20283;-66
2023/10/01 03:12:59;;;;;;;7.88;6.00;;;;;;;;;;6191776;23;20279;-66
2023/10/01 03:15:28;;;;;;;8.97;6.97;;;;;;;;;;6192790;23;20335;-66
2023/10/01 03:17:57;;;;;;;7.50;6.00;;;;;;;;;;6219241;23;20611;-66
2023/10/01 03:23:25;;;;;;;9.15;6.53;;;;;;;;;;6219192;23;20236;-66
2023/10/01 03:26:04;;;;;;;10.52;6.80;;;;;;;;;;6219841;23;20499;-66
2023/10/01 03:28:35;;;;;;;8.88;6.10;;;;;;;;;;6220157;23;20192;-67
2023/10/01 03:31:06;;;;;;;10.15;8.05;;;;;;;;;;6219763;23;20254;-66
2023/10/01 03:33:37;;;;;;;7.88;6.80;;;;;;;;;;6219375;23;20231;-66
2023/10/01 03:36:09;;;;;;;12.57;6.95;;;;;;;;;;6220312;23;20195;-66
2023/10/01 03:38:38;;;;;;;7.88;7.05;;;;;;;;;;6219519;23;20671;-65
2023/10/01 03:41:10;;;;;;;8.38;5.82;;;;;;;;;;6219404;23;20252;-65
2023/10/01 03:43:38;;;;;;;10.38;6.50;;;;;;;;;;6220440;23;20232;-66
2023/10/01 03:46:13;;;;;;;7.28;6.10;;;;;;;;;;6192997;23;20652;-66
2023/10/01 03:49:03;;;;;;;7.75;6.20;;;;;;;;;;6218832;23;20217;-66
2023/10/01 03:54:19;;;;;;;7.20;6.43;;;;;;;;;;6218524;23;20252;-66
2023/10/01 03:56:56;;;;;;;9.82;7.13;;;;;;;;;;6218825;23;20207;-66
2023/10/01 03:59:27;;;;;;;9.05;6.10;;;;;;;;;;6218843;23;20203;-66
2023/10/01 04:02:02;;;;;;;8.68;6.53;;;;;;;;;;6217026;23;20236;-66
2023/10/01 04:04:32;;;;;;;8.20;6.88;;;;;;;;;;6216950;23;20688;-66
2023/10/01 04:07:09;;;;;;;6.85;6.07;;;;;;;;;;6217624;23;20248;-66
2023/10/01 04:09:46;;;;;;;10.98;6.55;;;;;;;;;;6218885;23;20231;-66
2023/10/01 04:12:20;;;;;;;12.20;6.38;;;;;;;;;;6217962;23;20282;-66
2023/10/01 04:14:52;;;;;;;8.55;6.72;;;;;;;;;;6218109;23;20270;-66
2023/10/01 04:17:25;;;;;;;9.63;6.95;;;;;;;;;;6218375;23;20260;-66
2023/10/01 04:19:59;;;;;;;9.52;6.90;;;;;;;;;;6217801;23;20257;-66
2023/10/01 04:22:29;;;;;;;10.45;7.65;;;;;;;;;;6218094;23;20232;-66
2023/10/01 04:25:10;;;;;;;8.05;7.18;;;;;;;;;;6217705;23;20555;-66
2023/10/01 04:27:42;;;;;;;13.30;7.90;;;;;;;;;;6218489;23;20291;-66
2023/10/01 04:30:11;;;;;;;9.88;8.52;;;;;;;;;;6217921;23;20232;-66
2023/10/01 04:32:39;;;;;;;11.60;7.85;;;;;;;;;;6218161;23;20618;-66
2023/10/01 04:35:14;;;;;;;11.10;9.25;;;;;;;;;;6217432;23;20582;-66
2023/10/01 04:37:43;;;;;;;10.43;7.80;;;;;;;;;;6218589;23;20235;-66
2023/10/01 04:43:04;;;;;;;9.18;8.00;;;;;;;;;;6192009;23;20291;-66
2023/10/01 04:45:36;;;;;;;10.73;7.85;;;;;;;;;;6217556;23;20287;-66
2023/10/01 04:48:15;;;;;;;11.10;8.32;;;;;;;;;;6219137;23;20521;-66
2023/10/01 04:50:44;;;;;;;11.27;8.73;;;;;;;;;;6218362;23;20429;-66
2023/10/01 04:53:14;;;;;;;9.57;7.90;;;;;;;;;;6192364;23;20247;-66
2023/10/01 04:55:42;;;;;;;13.52;8.63;;;;;;;;;;6216986;23;20263;-66
2023/10/01 04:58:14;;;;;;;12.00;7.20;;;;;;;;;;6218597;23;20211;-66
2023/10/01 05:00:44;;;;;;;13.77;8.07;;;;;;;;;;6217663;23;20244;-66
2023/10/01 05:03:15;;;;;;;10.80;7.72;;;;;;;;;;6217300;23;20213;-66
2023/10/01 05:05:44;;;;;;;11.88;6.70;;;;;;;;;;6216339;23;20232;-66
2023/10/01 05:08:13;;;;;;;6.30;5.70;;;;;;;;;;6217452;23;20295;-66
2023/10/01 05:10:51;;;;;;;8.80;6.80;;;;;;;;;;6190825;23;20247;-66
2023/10/01 05:13:22;;;;;;;7.38;5.97;;;;;;;;;;6218051;23;20275;-66
2023/10/01 05:15:55;;;;;;;11.73;6.20;;;;;;;;;;6216615;23;20302;-66
2023/10/01 05:18:26;;;;;;;9.00;6.28;;;;;;;;;;6218616;23;20243;-66
2023/10/01 05:20:58;;;;;;;9.65;6.53;;;;;;;;;;6217797;23;20235;-66
2023/10/01 05:23:26;;;;;;;10.65;5.85;;;;;;;;;;6218266;23;20236;-66
2023/10/01 05:25:56;;;;;;;7.20;5.82;;;;;;;;;;6217458;23;20172;-66
2023/10/01 05:28:31;;;;;;;6.50;5.72;;;;;;;;;;6191310;23;20228;-66
2023/10/01 05:31:00;;;;;;;7.18;5.60;;;;;;;;;;6218477;23;20597;-66
2023/10/01 05:33:28;;;;;;;9.73;6.40;;;;;;;;;;6220005;23;20559;-66
2023/10/01 05:36:00;;;;;;;8.48;7.10;;;;;;;;;;6219776;23;20280;-66
2023/10/01 05:38:28;;;;;;;6.75;6.15;;;;;;;;;;6220155;23;20187;-66
2023/10/01 05:40:56;;;;;;;9.77;7.00;;;;;;;;;;6219127;23;20215;-66
2023/10/01 05:43:31;;;;;;;6.70;6.10;;;;;;;;;;6191723;23;20565;-66
2023/10/01 05:46:01;;;;;;;8.23;7.00;;;;;;;;;;6217645;23;20555;-66
2023/10/01 05:48:32;;;;;;;7.38;6.15;;;;;;;;;;6218095;23;20288;-66
2023/10/01 05:51:00;;;;;;;15.52;6.90;;;;;;;;;;6217916;23;20336;-66
2023/10/01 05:53:30;;;;;;;12.00;6.28;;;;;;;;;;6217983;23;20232;-66
2023/10/01 05:56:06;;;;;;;10.75;5.93;;;;;;;;;;6216758;23;20292;-66
2023/10/01 05:58:36;;;;;;;7.80;6.30;;;;;;;;;;6217473;23;20231;-66
2023/10/01 06:01:13;;;;;;;8.32;6.30;;;;;;;;;;6191035;23;20280;-66
2023/10/01 06:03:42;;;;;;;7.28;6.57;;;;;;;;;;6216192;23;20232;-66
2023/10/01 06:06:13;;;;;;;7.75;6.80;;;;;;;;;;6216860;23;20260;-66
2023/10/01 06:08:50;;;;;;;11.02;7.40;;;;;;;;;;6217005;23;20243;-66
2023/10/01 06:11:19;;;;;;;16.60;9.43;;;;;;;;;;6217288;23;20243;-66
2023/10/01 06:13:50;;;;;;;14.05;9.77;;;;;;;;;;6216337;23;20366;-66
2023/10/01 06:16:22;;;;;;;14.43;10.05;;;;;;;;;;6216382;23;20252;-66
2023/10/01 06:18:51;;;;;;;16.20;10.23;;;;;;;;;;6216146;23;20299;-66
2023/10/01 06:21:22;;;;;;;14.07;9.75;;;;;;;;;;6219420;23;20252;-66
2023/10/01 06:23:51;;;;;;;15.25;9.40;;;;;;;;;;6192911;23;20231;-66
2023/10/01 06:26:20;;;;;;;19.92;10.07;;;;;;;;;;6220243;23;20220;-66
2023/10/01 06:28:51;;;;;;;18.15;10.43;;;;;;;;;;6219224;23;20221;-66
2023/10/01 06:31:21;;;;;;;14.57;10.20;;;;;;;;;;6220111;23;20620;-66
2023/10/01 06:33:53;;;;;;;12.32;8.60;;;;;;;;;;6219837;23;20208;-66
2023/10/01 06:36:23;;;;;;;14.13;9.57;;;;;;;;;;6221846;23;20259;-66
2023/10/01 06:38:53;;;;;;;15.95;10.27;;;;;;;;;;6220607;23;20219;-66
2023/10/01 06:41:25;;;;;;;12.65;9.90;;;;;;;;;;6221445;23;20236;-66
2023/10/01 06:44:01;;;;;;;14.60;9.02;;;;;;;;;;6221514;23;20574;-66
2023/10/01 06:46:29;;;;;;;14.15;9.68;;;;;;;;;;6221169;23;20184;-66
2023/10/01 06:48:58;;;;;;;15.20;10.20;;;;;;;;;;6219444;23;20224;-66
2023/10/01 06:51:37;;;;;;;12.77;9.05;;;;;;;;;;6193988;23;20269;-66
2023/10/01 06:54:06;;;;;;;14.93;12.38;;;;;;;;;;6219581;23;20291;-66
2023/10/01 06:56:34;;;;;;;9.43;8.20;;;;;;;;;;6221147;23;20280;-66
2023/10/01 06:59:17;;;;;;;14.55;10.30;;;;;;;;;;6220107;23;20224;-66
2023/10/01 07:01:49;;;;;;;13.00;9.85;;;;;;;;;;6219585;23;20590;-66
2023/10/01 07:04:18;;;;;;;13.30;9.90;;;;;;;;;;6222563;23;20773;-66
2023/10/01 07:06:50;;;;;;;15.10;9.37;;;;;;;;;;6223998;23;20557;-66
2023/10/01 07:09:27;;;;;;;13.63;9.30;;;;;;;;;;6225296;23;20568;-66
2023/10/01 07:11:57;;;;;;;12.20;8.80;;;;;;;;;;6222807;23;20624;-66
2023/10/01 07:14:43;;;;;;;10.23;9.07;;;;;;;;;;6224837;23;20972;-66
2023/10/01 07:17:14;;;;;;;10.77;8.75;;;;;;;;;;6224525;23;20651;-66
2023/10/01 07:19:42;;;;;;;10.20;8.50;;;;;;;;;;6197650;23;20621;-66
2023/10/01 07:22:14;;;;;;;11.07;9.23;;;;;;;;;;6197386;23;20596;-66
2023/10/01 07:24:43;;;;;;;12.33;9.63;;;;;;;;;;6198062;23;20546;-66
2023/10/01 07:27:12;;;;;;;13.45;10.57;;;;;;;;;;6196954;23;20607;-66
2023/10/01 07:29:42;;;;;;;11.90;10.63;;;;;;;;;;6244547;23;20204;-66
2023/10/01 07:32:12;;;;;;;12.23;10.57;;;;;;;;;;6218778;23;21148;-66
2023/10/01 07:34:45;;;;;;;18.23;10.80;;;;;;;;;;6220512;23;20578;-66
2023/10/01 07:37:23;;;;;;;13.63;11.00;;;;;;;;;;6219339;23;21077;-66
2023/10/01 07:39:53;;;;;;;16.10;12.10;;;;;;;;;;6218694;23;21084;-66
2023/10/01 07:42:25;;;;;;;16.70;11.87;;;;;;;;;;6218742;23;20694;-66
2023/10/01 07:44:56;;;;;;;14.10;11.27;;;;;;;;;;6194183;23;20574;-66
2023/10/01 07:47:32;;;;;;;12.63;11.17;;;;;;;;;;6217512;23;21162;-66
2023/10/01 07:50:03;;;;;;;18.10;11.70;;;;;;;;;;6215944;23;20599;-66
2023/10/01 07:52:36;;;;;;;13.77;10.77;;;;;;;;;;6218252;23;20632;-66
2023/10/01 07:55:29;;;;;;;18.67;13.07;;;;;;;;;;6220239;23;20542;-66
2023/10/01 07:58:16;;;;;;;16.67;12.80;;;;;;;;;;6217368;23;20633;-66
2023/10/01 08:00:44;;;;;;;17.50;12.73;;;;;;;;;;6218854;23;20635;-66
2023/10/01 08:03:32;;;;;;;22.07;13.40;;;;;;;;;;6189215;23;20630;-66
2023/10/01 08:06:16;;;;;;;15.43;11.57;;;;;;;;;;6217658;23;20623;-66
2023/10/01 08:08:48;;;;;;;18.80;11.60;;;;;;;;;;6219370;23;20551;-66
2023/10/01 08:14:05;;;;;;;16.50;12.37;;;;;;;;;;6219435;23;20690;-66
2023/10/01 08:16:47;;;;;;;15.20;12.07;;;;;;;;;;6219176;23;20590;-66
2023/10/01 08:19:20;;;;;;;18.03;11.13;;;;;;;;;;6218930;23;20840;-66
2023/10/01 08:21:50;;;;;;;15.10;9.90;;;;;;;;;;6218296;23;20554;-66
2023/10/01 08:24:29;;;;;;;15.60;9.03;;;;;;;;;;6218896;23;20570;-66
2023/10/01 08:27:04;;;;;;;12.20;9.50;;;;;;;;;;6193076;23;20602;-66
2023/10/01 08:29:59;;;;;;;15.70;10.30;;;;;;;;;;6220622;23;20575;-66
2023/10/01 08:32:23;;;;;;;12.10;9.90;;;;;;;;;;6193742;23;20603;-66
2023/10/01 08:35:05;;;;;;;12.20;9.87;;;;;;;;;;6221258;23;21146;-66
2023/10/01 08:37:37;;;;;;;13.40;9.47;;;;;;;;;;6222010;23;20608;-66
2023/10/01 08:40:13;;;;;;;11.67;9.10;;;;;;;;;;6220656;23;20596;-67
2023/10/01 08:42:44;;;;;;;10.57;9.00;;;;;;;;;;6221363;23;21067;-66
2023/10/01 08:45:17;;;;;;;9.13;8.17;;;;;;;;;;6193937;23;20937;-66
2023/10/01 08:47:48;;;;;;;14.10;8.40;;;;;;;;;;6221220;23;20567;-67
2023/10/01 08:50:26;;;;;;;12.03;8.80;;;;;;;;;;6220440;23;20572;-67
2023/10/01 08:52:56;;;;;;;11.80;9.00;;;;;;;;;;6220801;23;20639;-67
2023/10/01 08:55:26;;;;;;;9.67;8.60;;;;;;;;;;6221117;23;20943;-67
2023/10/01 08:57:55;;;;;;;11.37;7.00;;;;;;;;;;6196710;23;20638;-67
2023/10/01 09:00:24;;;;;;;10.07;7.47;;;;;;;;;;6222140;23;20610;-67
2023/10/01 09:02:55;;;;;;;12.17;8.07;;;;;;;;;;6220520;23;20607;-67
2023/10/01 09:05:25;;;;;;;10.23;7.80;;;;;;;;;;6220209;23;21097;-66
2023/10/01 09:10:50;;;;;;;11.50;8.87;;;;;;;;;;6220412;23;20572;-66
2023/10/01 09:13:21;;;;;;;10.03;7.57;;;;;;;;;;6219653;23;20650;-67
2023/10/01 09:15:55;;;;;;;9.70;7.53;;;;;;;;;;6218573;23;20575;-67
2023/10/01 09:18:25;;;;;;;11.30;7.37;;;;;;;;;;6219573;23;20590;-67
2023/10/01 09:21:20;;;;;;;11.27;8.27;;;;;;;;;;6195013;23;20564;-67
2023/10/01 09:23:55;;;;;;;10.57;8.17;;;;;;;;;;6195907;23;20560;-67
2023/10/01 09:26:43;;;;;;;10.03;8.30;;;;;;;;;;6219290;23;20587;-66
2023/10/01 09:29:21;;;;;;;12.90;8.00;;;;;;;;;;6193207;23;21078;-67
2023/10/01 09:31:54;;;;;;;13.20;8.50;;;;;;;;;;6220421;23;20560;-67
2023/10/01 09:34:33;;;;;;;9.87;6.93;;;;;;;;;;6193719;23;20586;-66
2023/10/01 09:37:07;;;;;;;12.40;7.90;;;;;;;;;;6220155;23;20615;-68
2023/10/01 09:39:41;;;;;;;13.33;7.60;;;;;;;;;;6220479;23;20614;-67
2023/10/01 09:44:52;;;;;;;11.13;7.90;;;;;;;;;;6219297;23;20594;-67
2023/10/01 09:47:24;;;;;;;9.07;7.53;;;;;;;;;;6219618;23;20610;-67
2023/10/01 09:49:54;;;;;;;10.57;7.80;;;;;;;;;;6218772;23;20590;-67
2023/10/01 09:52:30;;;;;;;9.47;7.37;;;;;;;;;;6218994;23;20677;-68
2023/10/01 09:55:03;;;;;;;11.13;8.50;;;;;;;;;;6218253;23;20607;-67
2023/10/01 09:57:34;;;;;;;9.93;8.93;;;;;;;;;;6221810;23;20679;-67
2023/10/01 10:00:17;;;;;;;10.00;8.67;;;;;;;;;;6222189;23;20575;-66
2023/10/01 10:02:53;;;;;;;9.30;8.20;;;;;;;;;;6220772;23;20639;-66
2023/10/01 10:05:26;;;;;;;12.40;8.87;;;;;;;;;;6193435;23;20626;-66
2023/10/01 10:07:55;;;;;;;14.20;9.43;;;;;;;;;;6221703;23;20575;-66
2023/10/01 10:10:26;;;;;;;11.00;9.30;;;;;;;;;;6221382;23;20725;-66
2023/10/01 10:12:56;;;;;;;9.20;8.30;;;;;;;;;;6222843;23;20670;-66
2023/10/01 10:15:46;;;;;;;12.77;9.33;;;;;;;;;;6221519;23;20647;-66
2023/10/01 10:18:15;;;;;;;11.10;9.40;;;;;;;;;;6222560;23;20659;-66
2023/10/01 10:21:04;;;;;;;11.20;8.80;;;;;;;;;;6222008;23;20563;-66
2023/10/01 10:23:52;;;;;;;11.17;10.00;;;;;;;;;;6222882;23;20583;-66
2023/10/01 10:26:38;;;;;;;11.17;9.97;;;;;;;;;;6222427;23;20564;-66
2023/10/01 10:29:10;;;;;;;11.87;10.30;;;;;;;;;;6222179;23;20611;-66
2023/10/01 10:31:39;;;;;;;11.23;9.20;;;;;;;;;;6223322;23;20576;-67
2023/10/01 10:34:21;;;;;;;11.53;10.33;;;;;;;;;;6197200;23;20614;-67
2023/10/01 10:36:51;;;;;;;15.27;10.50;;;;;;;;;;6223688;23;20615;-67
2023/10/01 10:39:40;;;;;;;11.53;10.43;;;;;;;;;;6223292;23;20586;-67
2023/10/01 10:42:27;;;;;;;14.83;11.90;;;;;;;;;;6223884;23;20971;-67
2023/10/01 10:45:21;;;;;;;11.10;10.10;;;;;;;;;;6224308;23;20572;-67
2023/10/01 10:47:59;;;;;;;12.03;10.83;;;;;;;;;;6224610;23;20551;-67
2023/10/01 10:50:39;;;;;;;11.20;10.30;;;;;;;;;;6224825;23;20559;-66
2023/10/01 10:53:15;;;;;;;14.23;12.90;;;;;;;;;;6225283;23;20559;-66
2023/10/01 10:55:53;;;;;;;14.93;13.23;;;;;;;;;;6225534;23;20571;-66
2023/10/01 10:58:24;;;;;;;16.10;14.67;;;;;;;;;;6224474;23;20961;-66
2023/10/01 11:00:53;;;;;;;16.70;15.40;;;;;;;;;;6195810;23;20686;-66
2023/10/01 11:03:40;;;;;;;18.17;16.47;;;;;;;;;;6219728;23;20599;-66
2023/10/01 11:06:39;;;;;;;17.73;16.40;;;;;;;;;;6218929;23;20611;-66
2023/10/01 11:09:25;;;;;;;19.17;17.63;;;;;;;;;;6219190;23;20560;-66
2023/10/01 11:11:53;;;;;;;19.13;17.53;;;;;;;;;;6217984;23;20690;-66
2023/10/01 11:14:25;;;;;;;19.77;18.07;;;;;;;;;;6218133;23;20962;-66
2023/10/01 11:16:53;;;;;;;20.40;18.67;;;;;;;;;;6220880;23;20598;-66
2023/10/01 11:19:25;;;;;;;20.03;18.53;;;;;;;;;;6220593;23;20694;-66
2023/10/01 11:21:58;;;;;;;19.30;17.80;;;;;;;;;;6220556;23;21071;-66
2023/10/01 11:24:32;;;;;;;20.20;18.70;;;;;;;;;;6220947;23;21059;-66
2023/10/01 11:27:17;;;;;;;21.90;20.10;;;;;;;;;;6220377;23;20567;-66
2023/10/01 11:29:45;;;;;;;20.37;18.87;;;;;;;;;;6195056;23;20540;-67
2023/10/01 11:32:17;;;;;;;21.07;19.50;;;;;;;;;;6222257;23;20607;-66
2023/10/01 11:34:46;;;;;;;21.20;19.37;;;;;;;;;;6244854;23;20983;-66
2023/10/01 11:37:18;;;;;;;19.97;18.67;;;;;;;;;;6221272;23;21007;-67
2023/10/01 11:39:52;;;;;;;21.37;19.73;;;;;;;;;;6195121;23;20564;-66
2023/10/01 11:42:35;;;;;;;21.23;19.53;;;;;;;;;;6220205;23;20603;-66
2023/10/01 11:45:28;;;;;;;22.67;20.40;;;;;;;;;;6220976;23;20575;-66
2023/10/01 11:48:05;;;;;;;21.50;19.90;;;;;;;;;;6221699;23;20607;-66
2023/10/01 11:50:49;;;;;;;21.53;20.03;;;;;;;;;;6220353;23;20588;-66
2023/10/01 11:53:28;;;;;;;21.30;19.70;;;;;;;;;;6219623;23;20587;-66
2023/10/01 11:56:01;;;;;;;22.13;20.50;;;;;;;;;;6219388;23;20679;-66
2023/10/01 11:58:29;;;;;;;21.67;20.10;;;;;;;;;;6194905;23;21193;-66
2023/10/01 12:00:59;;;;;;;22.70;20.87;;;;;;;;;;6218735;23;20599;-67
2023/10/01 12:03:27;;;;;;;20.20;18.40;;;;;;;;;;6212742;23;20694;-69
2023/10/01 12:05:57;;;;;;;20.87;19.20;;;;;;;;;;6238196;23;20670;-69
2023/10/01 12:08:35;;;;;;;20.93;19.33;;;;;;;;;;6214355;23;20659;-70
2023/10/01 12:11:26;;;;;;;21.63;19.93;;;;;;;;;;6213242;23;20622;-70
2023/10/01 12:14:05;;;;;;;20.30;18.80;;;;;;;;;;6212314;23;20791;-68
2023/10/01 12:16:35;;;;;;;22.67;20.70;;;;;;;;;;6213519;23;20668;-68
2023/10/01 12:21:48;;;;;;;22.30;20.57;;;;;;;;;;6213661;23;20623;-69
2023/10/01 12:24:16;;;;;;;21.00;19.47;;;;;;;;;;6188056;23;20662;-67
2023/10/01 12:26:47;;;;;;;21.67;19.77;;;;;;;;;;6212546;23;20667;-67
2023/10/01 12:29:17;;;;;;;21.77;20.00;;;;;;;;;;6214594;23;20670;-68
2023/10/01 12:31:45;;;;;;;21.13;19.63;;;;;;;;;;6185333;23;20667;-68
2023/10/01 12:34:13;;;;;;;21.03;19.53;;;;;;;;;;6214674;23;20647;-68
2023/10/01 12:36:44;;;;;;;21.73;20.03;;;;;;;;;;6213948;23;20646;-66
2023/10/01 12:39:19;;;;;;;21.30;19.60;;;;;;;;;;6213943;23;20615;-66
2023/10/01 12:41:56;;;;;;;21.77;20.17;;;;;;;;;;6214026;23;20999;-67
2023/10/01 12:44:28;;;;;;;22.80;21.00;;;;;;;;;;6213291;23;20940;-68
2023/10/01 12:47:00;;;;;;;22.10;20.50;;;;;;;;;;6213975;23;20623;-67
2023/10/01 12:49:27;;;;;;;22.17;20.43;;;;;;;;;;6213521;23;20993;-68
2023/10/01 12:51:56;;;;;;;22.73;20.97;;;;;;;;;;6213962;23;20686;-67
2023/10/01 12:54:25;;;;;;;21.50;19.90;;;;;;;;;;6214338;23;20963;-67
2023/10/01 12:57:09;;;;;;;21.37;19.47;;;;;;;;;;6212923;23;20663;-68
2023/10/01 12:59:38;;;;;;;21.57;19.97;;;;;;;;;;6213226;23;20630;-67
2023/10/01 13:02:21;;;;;;;22.53;21.03;;;;;;;;;;6211769;23;21190;-67
2023/10/01 13:04:50;;;;;;;22.57;21.03;;;;;;;;;;6212431;23;20627;-68
2023/10/01 13:07:35;;;;;;;24.00;21.90;;;;;;;;;;6213863;23;20659;-67
2023/10/01 13:10:05;;;;;;;22.37;20.67;;;;;;;;;;6242067;23;20615;-67
2023/10/01 13:12:39;;;;;;;22.83;20.90;;;;;;;;;;6217679;23;20640;-68
2023/10/01 13:15:15;;;;;;;22.33;20.67;;;;;;;;;;6218713;23;20651;-68
2023/10/01 13:17:56;;;;;;;22.07;20.20;;;;;;;;;;6217508;23;20610;-65
2023/10/01 13:20:26;;;;;;;21.47;20.03;;;;;;;;;;6218466;23;20629;-66
2023/10/01 13:22:59;;;;;;;21.27;19.77;;;;;;;;;;6218765;23;20614;-67
2023/10/01 13:25:28;;;;;;;21.70;20.10;;;;;;;;;;6218557;23;20615;-67
2023/10/01 13:28:02;;;;;;;22.43;20.73;;;;;;;;;;6218509;23;20690;-66
2023/10/01 13:30:51;;;;;;;21.63;20.03;;;;;;;;;;6218047;23;20650;-66
2023/10/01 13:33:20;;;;;;;22.33;20.73;;;;;;;;;;6218429;23;20567;-67
2023/10/01 13:35:56;;;;;;;21.63;20.23;;;;;;;;;;6218198;23;20986;-67
2023/10/01 13:38:37;;;;;;;22.20;20.60;;;;;;;;;;6218556;23;20599;-67
2023/10/01 14:08:54;;;;;;;22.77;20.97;;;;;;;;;;6135182;23;20706;-67
2023/10/01 14:11:27;;;;;;;22.27;20.67;;;;;;;;;;6217294;23;20952;-67
2023/10/01 14:13:54;;;;;;;22.40;20.80;;;;;;;;;;6216597;23;20781;-67
2023/10/01 14:16:24;;;;;;;21.83;20.30;;;;;;;;;;6217479;23;21075;-67
2023/10/01 14:18:56;;;;;;;21.80;20.23;;;;;;;;;;6218579;23;20658;-67
2023/10/01 14:21:25;;;;;;;22.43;20.90;;;;;;;;;;6218216;23;20639;-67
2023/10/01 14:23:57;;;;;;;23.33;21.53;;;;;;;;;;6217751;23;20644;-69
2023/10/01 14:26:33;;;;;;;21.93;20.43;;;;;;;;;;6217554;23;20631;-67
2023/10/01 14:29:05;;;;;;;21.53;20.03;;;;;;;;;;6218872;23;20668;-67
2023/10/01 14:31:49;;;;;;;22.20;20.53;;;;;;;;;;6218898;23;20560;-67
2023/10/01 14:34:18;;;;;;;22.20;20.50;;;;;;;;;;6217726;23;20605;-67
2023/10/01 14:36:46;;;;;;;21.63;20.13;;;;;;;;;;6218199;23;20614;-67
2023/10/01 14:39:15;;;;;;;22.23;20.53;;;;;;;;;;6217676;23;20592;-66
2023/10/01 14:41:45;;;;;;;22.37;20.77;;;;;;;;;;6218420;23;20673;-67
2023/10/01 14:44:15;;;;;;;21.77;20.27;;;;;;;;;;6219685;23;20583;-68
2023/10/01 14:46:49;;;;;;;22.27;20.47;;;;;;;;;;6220385;23;20658;-67
2023/10/01 14:49:19;;;;;;;22.07;20.47;;;;;;;;;;6192948;23;20585;-66
2023/10/01 14:51:49;;;;;;;21.73;19.93;;;;;;;;;;6219530;23;20635;-68
2023/10/01 14:54:18;;;;;;;21.93;20.30;;;;;;;;;;6219383;23;20604;-67
2023/10/01 14:56:54;;;;;;;21.90;20.00;;;;;;;;;;6219282;23;20970;-67
2023/10/01 14:59:23;;;;;;;22.20;20.43;;;;;;;;;;6219237;23;20613;-67
2023/10/01 15:01:53;;;;;;;22.77;21.03;;;;;;;;;;6219026;23;20663;-67
2023/10/01 15:04:29;;;;;;;22.10;20.40;;;;;;;;;;6217425;23;20654;-67
2023/10/01 15:06:58;;;;;;;22.03;20.43;;;;;;;;;;6219351;23;20626;-68
2023/10/01 15:09:26;;;;;;;22.07;20.37;;;;;;;;;;6219849;23;20698;-67
2023/10/01 15:11:55;;;;;;;22.17;20.50;;;;;;;;;;6218150;23;20695;-67
2023/10/01 15:14:26;;;;;;;22.60;20.43;;;;;;;;;;6192631;23;20616;-67
2023/10/01 15:16:55;;;;;;;21.33;19.83;;;;;;;;;;6227161;23;20570;-67
2023/10/01 15:19:25;;;;;;;22.27;20.70;;;;;;;;;;6228659;23;20602;-67
2023/10/01 15:21:53;;;;;;;22.63;21.03;;;;;;;;;;6228340;23;20634;-67
2023/10/01 15:24:22;;;;;;;21.40;19.73;;;;;;;;;;6228616;23;20588;-67
2023/10/01 15:26:50;;;;;;;21.40;19.97;;;;;;;;;;6228896;23;20610;-66
2023/10/01 15:29:18;;;;;;;22.40;20.07;;;;;;;;;;6228611;23;20643;-66
2023/10/01 15:31:51;;;;;;;21.97;20.13;;;;;;;;;;6230030;23;20559;-67
2023/10/01 15:34:21;;;;;;;20.80;19.20;;;;;;;;;;6228803;23;20564;-66
2023/10/01 15:36:50;;;;;;;20.80;19.30;;;;;;;;;;6227602;23;20595;-67
2023/10/01 15:39:36;;;;;;;20.73;19.27;;;;;;;;;;6228270;23;20606;-66
2023/10/01 15:42:12;;;;;;;21.20;18.87;;;;;;;;;;6230645;23;20576;-66
2023/10/01 15:44:47;;;;;;;21.20;19.57;;;;;;;;;;6228385;23;20579;-66
2023/10/01 15:47:39;;;;;;;21.03;19.37;;;;;;;;;;6230626;23;20645;-67
2023/10/01 15:50:11;;;;;;;21.27;19.60;;;;;;;;;;6228107;23;20608;-68
2023/10/01 15:52:46;;;;;;;21.57;19.77;;;;;;;;;;6229877;23;20543;-68